HKE820 VHHH-ROAH
Flight info
| Callsign | HKE820 |
|---|---|
| Flight time | 1h 55m |
| Altitude | 35000 |
| Route | DALOL V631 ENVAR M750 KUDOS R595 MJC Y57 VELNO |
| Aircraft | A21N/M-SDE3FGHIRWY/LB1 |
Departure
| Time | 2026-04-25 06:31 |
|---|---|
| Airport | Hong Kong International Airport (VHHH) |
Arrival
| Time | 2026-04-25 08:27 |
|---|---|
| Airport | Naha International Airport (ROAH) |
| Time | Latitude | Longitude | Altitude | Speed | Heading |
|---|---|---|---|---|---|
| 2026-04-25 06:14 | 22.30996 | 113.91213 | 35 ft | 0 kts | 71° |
| 2026-04-25 06:19 | 22.30996 | 113.91211 | 35 ft | 1 kts | 71° |
| 2026-04-25 06:19 | 22.30991 | 113.91196 | 35 ft | 2 kts | 71° |
| 2026-04-25 06:19 | 22.30986 | 113.91180 | 35 ft | 2 kts | 71° |
| 2026-04-25 06:20 | 22.30981 | 113.91165 | 35 ft | 2 kts | 71° |
| 2026-04-25 06:20 | 22.30976 | 113.91150 | 35 ft | 2 kts | 71° |
| 2026-04-25 06:20 | 22.30973 | 113.91141 | 35 ft | 1 kts | 71° |
| 2026-04-25 06:20 | 22.30966 | 113.91126 | 35 ft | 2 kts | 44° |
| 2026-04-25 06:21 | 22.30954 | 113.91116 | 35 ft | 2 kts | 23° |
| 2026-04-25 06:21 | 22.30939 | 113.91112 | 35 ft | 2 kts | 360° |
| 2026-04-25 06:21 | 22.30929 | 113.91114 | 35 ft | 0 kts | 344° |
| 2026-04-25 06:21 | 22.30922 | 113.91116 | 35 ft | 0 kts | 341° |
| 2026-04-25 06:25 | 22.30961 | 113.91103 | 35 ft | 13 kts | 341° |
| 2026-04-25 06:25 | 22.31069 | 113.91062 | 35 ft | 16 kts | 340° |
| 2026-04-25 06:26 | 22.31178 | 113.91024 | 35 ft | 15 kts | 354° |
| 2026-04-25 06:26 | 22.31235 | 113.91108 | 35 ft | 15 kts | 72° |
| 2026-04-25 06:26 | 22.31279 | 113.91245 | 35 ft | 23 kts | 70° |
| 2026-04-25 06:26 | 22.31333 | 113.91409 | 35 ft | 22 kts | 71° |
| 2026-04-25 06:27 | 22.31381 | 113.91567 | 35 ft | 21 kts | 71° |
| 2026-04-25 06:27 | 22.31433 | 113.91719 | 35 ft | 24 kts | 70° |
| 2026-04-25 06:27 | 22.31493 | 113.91901 | 35 ft | 25 kts | 70° |
| 2026-04-25 06:27 | 22.31549 | 113.92074 | 35 ft | 23 kts | 71° |
| 2026-04-25 06:28 | 22.31603 | 113.92239 | 35 ft | 22 kts | 72° |
| 2026-04-25 06:28 | 22.31651 | 113.92390 | 35 ft | 19 kts | 68° |
| 2026-04-25 06:28 | 22.31746 | 113.92429 | 35 ft | 13 kts | 24° |
| 2026-04-25 06:28 | 22.31788 | 113.92522 | 35 ft | 14 kts | 72° |
| 2026-04-25 06:29 | 22.31826 | 113.92645 | 35 ft | 17 kts | 71° |
| 2026-04-25 06:29 | 22.31866 | 113.92768 | 35 ft | 17 kts | 70° |
| 2026-04-25 06:29 | 22.31904 | 113.92889 | 35 ft | 16 kts | 71° |
| 2026-04-25 06:29 | 22.31945 | 113.93006 | 35 ft | 16 kts | 69° |
| 2026-04-25 06:30 | 22.32024 | 113.93051 | 35 ft | 11 kts | 346° |
| 2026-04-25 06:30 | 22.32096 | 113.93024 | 35 ft | 10 kts | 309° |
| 2026-04-25 06:30 | 22.32106 | 113.92947 | 35 ft | 11 kts | 252° |
| 2026-04-25 06:30 | 22.32043 | 113.92747 | 35 ft | 60 kts | 251° |
| 2026-04-25 06:31 | 22.31825 | 113.92078 | 35 ft | 126 kts | 251° |
| 2026-04-25 06:31 | 22.31476 | 113.90987 | 40 ft | 179 kts | 252° |
| 2026-04-25 06:31 | 22.31027 | 113.89639 | 431 ft | 195 kts | 248° |
| 2026-04-25 06:31 | 22.30518 | 113.88303 | 1156 ft | 196 kts | 248° |
| 2026-04-25 06:32 | 22.30004 | 113.86952 | 1887 ft | 196 kts | 248° |
| 2026-04-25 06:32 | 22.29560 | 113.85530 | 2288 ft | 207 kts | 253° |
| 2026-04-25 06:32 | 22.29123 | 113.83991 | 2583 ft | 224 kts | 253° |
| 2026-04-25 06:32 | 22.28624 | 113.82289 | 2867 ft | 244 kts | 253° |
| 2026-04-25 06:33 | 22.28077 | 113.80507 | 3361 ft | 254 kts | 252° |
| 2026-04-25 06:33 | 22.27498 | 113.78670 | 4073 ft | 256 kts | 253° |
| 2026-04-25 06:33 | 22.26927 | 113.76866 | 4785 ft | 256 kts | 253° |
| 2026-04-25 06:33 | 22.26334 | 113.75031 | 5514 ft | 257 kts | 251° |
| 2026-04-25 06:34 | 22.25411 | 113.73383 | 6196 ft | 261 kts | 227° |
| 2026-04-25 06:34 | 22.23941 | 113.72212 | 6890 ft | 263 kts | 214° |
| 2026-04-25 06:34 | 22.22302 | 113.71274 | 7492 ft | 269 kts | 199° |
| 2026-04-25 06:34 | 22.20441 | 113.71197 | 8031 ft | 278 kts | 166° |
| 2026-04-25 06:35 | 22.18629 | 113.71991 | 8617 ft | 282 kts | 157° |
| 2026-04-25 06:35 | 22.16826 | 113.72884 | 8928 ft | 284 kts | 157° |
| 2026-04-25 06:35 | 22.15025 | 113.73750 | 8981 ft | 285 kts | 158° |
| 2026-04-25 06:35 | 22.13197 | 113.74636 | 8982 ft | 286 kts | 154° |
| 2026-04-25 06:36 | 22.11499 | 113.75745 | 8989 ft | 293 kts | 145° |
| 2026-04-25 06:36 | 22.09843 | 113.77148 | 8992 ft | 302 kts | 141° |
| 2026-04-25 06:36 | 22.08243 | 113.78590 | 8992 ft | 303 kts | 141° |
| 2026-04-25 06:36 | 22.06797 | 113.80270 | 8976 ft | 304 kts | 121° |
| 2026-04-25 06:37 | 22.06019 | 113.82375 | 9114 ft | 309 kts | 102° |
| 2026-04-25 06:37 | 22.05597 | 113.84635 | 9710 ft | 310 kts | 99° |
| 2026-04-25 06:37 | 22.05196 | 113.86926 | 10333 ft | 311 kts | 100° |
| 2026-04-25 06:37 | 22.04772 | 113.89240 | 10627 ft | 323 kts | 100° |
| 2026-04-25 06:38 | 22.04302 | 113.91687 | 10896 ft | 337 kts | 101° |
| 2026-04-25 06:38 | 22.03810 | 113.94187 | 11191 ft | 348 kts | 101° |
| 2026-04-25 06:38 | 22.03298 | 113.96759 | 11655 ft | 352 kts | 101° |
| 2026-04-25 06:38 | 22.02781 | 113.99352 | 12194 ft | 354 kts | 101° |
| 2026-04-25 06:39 | 22.02264 | 114.01949 | 12713 ft | 357 kts | 101° |
| 2026-04-25 06:39 | 22.01741 | 114.04574 | 13236 ft | 358 kts | 101° |
| 2026-04-25 06:39 | 22.01223 | 114.07171 | 13703 ft | 361 kts | 101° |
| 2026-04-25 06:39 | 22.00688 | 114.09827 | 14122 ft | 365 kts | 102° |
| 2026-04-25 06:40 | 21.99968 | 114.12479 | 14575 ft | 368 kts | 109° |
| 2026-04-25 06:40 | 21.98980 | 114.15009 | 14999 ft | 372 kts | 116° |
| 2026-04-25 06:40 | 21.97802 | 114.17494 | 15434 ft | 374 kts | 118° |
| 2026-04-25 06:40 | 21.96576 | 114.19987 | 15856 ft | 377 kts | 118° |
| 2026-04-25 06:41 | 21.95357 | 114.22468 | 16252 ft | 380 kts | 118° |
| 2026-04-25 06:41 | 21.94123 | 114.24999 | 16653 ft | 383 kts | 118° |
| 2026-04-25 06:41 | 21.92896 | 114.27529 | 17051 ft | 385 kts | 117° |
| 2026-04-25 06:41 | 21.91647 | 114.30106 | 17438 ft | 387 kts | 117° |
| 2026-04-25 06:42 | 21.90412 | 114.32658 | 17829 ft | 389 kts | 117° |
| 2026-04-25 06:42 | 21.89158 | 114.35252 | 18236 ft | 391 kts | 118° |
| 2026-04-25 06:42 | 21.87889 | 114.37871 | 18600 ft | 394 kts | 118° |
| 2026-04-25 06:42 | 21.86630 | 114.40467 | 18945 ft | 396 kts | 118° |
| 2026-04-25 06:43 | 21.85406 | 114.43162 | 19307 ft | 399 kts | 114° |
| 2026-04-25 06:43 | 21.84387 | 114.45939 | 19670 ft | 401 kts | 109° |
| 2026-04-25 06:43 | 21.83573 | 114.48792 | 20011 ft | 404 kts | 106° |
| 2026-04-25 06:43 | 21.82826 | 114.51703 | 20370 ft | 406 kts | 105° |
| 2026-04-25 06:44 | 21.82078 | 114.54661 | 20685 ft | 409 kts | 105° |
| 2026-04-25 06:44 | 21.81332 | 114.57592 | 21030 ft | 410 kts | 105° |
| 2026-04-25 06:44 | 21.80573 | 114.60560 | 21360 ft | 413 kts | 106° |
| 2026-04-25 06:44 | 21.79810 | 114.63522 | 21698 ft | 414 kts | 106° |
| 2026-04-25 06:45 | 21.79038 | 114.66513 | 22015 ft | 417 kts | 106° |
| 2026-04-25 06:45 | 21.78256 | 114.69531 | 22325 ft | 419 kts | 106° |
| 2026-04-25 06:45 | 21.77480 | 114.72527 | 22624 ft | 421 kts | 106° |
| 2026-04-25 06:45 | 21.76689 | 114.75584 | 22908 ft | 424 kts | 107° |
| 2026-04-25 06:46 | 21.75900 | 114.78620 | 23176 ft | 427 kts | 107° |
| 2026-04-25 06:46 | 21.75116 | 114.81730 | 23429 ft | 431 kts | 104° |
| 2026-04-25 06:46 | 21.74563 | 114.84870 | 23678 ft | 434 kts | 98° |
| 2026-04-25 06:46 | 21.74309 | 114.88100 | 23964 ft | 437 kts | 92° |
| 2026-04-25 06:47 | 21.74276 | 114.91386 | 24243 ft | 439 kts | 90° |
| 2026-04-25 06:47 | 21.74296 | 114.94655 | 24515 ft | 441 kts | 90° |
| 2026-04-25 06:47 | 21.74322 | 114.97982 | 24786 ft | 444 kts | 90° |
| 2026-04-25 06:47 | 21.74338 | 115.01298 | 25035 ft | 447 kts | 90° |
| 2026-04-25 06:48 | 21.74345 | 115.04649 | 25288 ft | 449 kts | 90° |
| 2026-04-25 06:48 | 21.74346 | 115.07971 | 25527 ft | 452 kts | 90° |
| 2026-04-25 06:48 | 21.74345 | 115.11371 | 25786 ft | 454 kts | 90° |
| 2026-04-25 06:48 | 21.74341 | 115.14783 | 26058 ft | 456 kts | 90° |
| 2026-04-25 06:49 | 21.74337 | 115.18203 | 26303 ft | 458 kts | 90° |
| 2026-04-25 06:49 | 21.74332 | 115.21611 | 26534 ft | 461 kts | 90° |
| 2026-04-25 06:49 | 21.74326 | 115.25063 | 26762 ft | 464 kts | 90° |
| 2026-04-25 06:49 | 21.74318 | 115.28548 | 27019 ft | 465 kts | 90° |
| 2026-04-25 06:50 | 21.74311 | 115.32005 | 27255 ft | 467 kts | 91° |
| 2026-04-25 06:50 | 21.74304 | 115.35518 | 27463 ft | 470 kts | 91° |
| 2026-04-25 06:50 | 21.74293 | 115.39035 | 27695 ft | 472 kts | 91° |
| 2026-04-25 06:50 | 21.74285 | 115.42538 | 27938 ft | 474 kts | 91° |
| 2026-04-25 06:51 | 21.74274 | 115.46103 | 28124 ft | 477 kts | 91° |
| 2026-04-25 06:51 | 21.74264 | 115.49668 | 28304 ft | 480 kts | 91° |
| 2026-04-25 06:51 | 21.74254 | 115.53228 | 28495 ft | 482 kts | 91° |
| 2026-04-25 06:51 | 21.74239 | 115.56843 | 28709 ft | 484 kts | 91° |
| 2026-04-25 06:52 | 21.74224 | 115.60474 | 28920 ft | 486 kts | 91° |
| 2026-04-25 06:52 | 21.74210 | 115.64078 | 29142 ft | 488 kts | 91° |
| 2026-04-25 06:52 | 21.74194 | 115.67752 | 29343 ft | 490 kts | 91° |
| 2026-04-25 06:52 | 21.74179 | 115.71442 | 29495 ft | 493 kts | 91° |
| 2026-04-25 06:53 | 21.74165 | 115.75095 | 29666 ft | 495 kts | 91° |
| 2026-04-25 06:53 | 21.74148 | 115.78816 | 29855 ft | 497 kts | 91° |
| 2026-04-25 06:53 | 21.74130 | 115.82507 | 30013 ft | 499 kts | 91° |
| 2026-04-25 06:53 | 21.74112 | 115.86199 | 30273 ft | 498 kts | 91° |
| 2026-04-25 06:54 | 21.74093 | 115.89945 | 30471 ft | 499 kts | 91° |
| 2026-04-25 06:54 | 21.74073 | 115.93661 | 30642 ft | 502 kts | 91° |
| 2026-04-25 06:54 | 21.74051 | 115.97433 | 30802 ft | 504 kts | 91° |
| 2026-04-25 06:54 | 21.74030 | 116.01189 | 30973 ft | 506 kts | 91° |
| 2026-04-25 06:55 | 21.74007 | 116.04957 | 31156 ft | 507 kts | 91° |
| 2026-04-25 06:55 | 21.73983 | 116.08733 | 31356 ft | 508 kts | 91° |
| 2026-04-25 06:55 | 21.73959 | 116.12536 | 31572 ft | 508 kts | 91° |
| 2026-04-25 06:55 | 21.73935 | 116.16344 | 31778 ft | 509 kts | 91° |
| 2026-04-25 06:56 | 21.73908 | 116.20129 | 31989 ft | 510 kts | 91° |
| 2026-04-25 06:56 | 21.73880 | 116.23989 | 32178 ft | 511 kts | 91° |
| 2026-04-25 06:56 | 21.73851 | 116.27803 | 32359 ft | 512 kts | 91° |
| 2026-04-25 06:56 | 21.73821 | 116.31627 | 32542 ft | 513 kts | 91° |
| 2026-04-25 06:57 | 21.73791 | 116.35493 | 32757 ft | 513 kts | 91° |
| 2026-04-25 06:57 | 21.73762 | 116.39280 | 32955 ft | 514 kts | 91° |
| 2026-04-25 06:57 | 21.73731 | 116.43153 | 33187 ft | 515 kts | 91° |
| 2026-04-25 06:57 | 21.73698 | 116.47013 | 33417 ft | 515 kts | 91° |
| 2026-04-25 06:58 | 21.73666 | 116.50860 | 33647 ft | 516 kts | 92° |
| 2026-04-25 06:58 | 21.73632 | 116.54717 | 33814 ft | 518 kts | 92° |
| 2026-04-25 06:58 | 21.73592 | 116.58566 | 34018 ft | 518 kts | 91° |
| 2026-04-25 06:58 | 21.73558 | 116.62417 | 34203 ft | 520 kts | 92° |
| 2026-04-25 06:59 | 21.73519 | 116.66309 | 34394 ft | 520 kts | 92° |
| 2026-04-25 06:59 | 21.73516 | 116.70173 | 34549 ft | 522 kts | 90° |
| 2026-04-25 06:59 | 21.73724 | 116.74105 | 34680 ft | 524 kts | 85° |
| 2026-04-25 06:59 | 21.74189 | 116.77962 | 34836 ft | 525 kts | 81° |
| 2026-04-25 07:00 | 21.74925 | 116.81808 | 34990 ft | 525 kts | 76° |
| 2026-04-25 07:00 | 21.77169 | 116.89284 | 34993 ft | 525 kts | 67° |
| 2026-04-25 07:01 | 21.79874 | 116.96562 | 34995 ft | 526 kts | 66° |
| 2026-04-25 07:01 | 21.82561 | 117.03828 | 34994 ft | 526 kts | 67° |
| 2026-04-25 07:02 | 21.85222 | 117.11166 | 34999 ft | 527 kts | 67° |
| 2026-04-25 07:02 | 21.87869 | 117.18518 | 35002 ft | 527 kts | 67° |
| 2026-04-25 07:03 | 21.90514 | 117.25871 | 35001 ft | 527 kts | 67° |
| 2026-04-25 07:03 | 21.93148 | 117.33200 | 35002 ft | 526 kts | 68° |
| 2026-04-25 07:04 | 21.95779 | 117.40529 | 35000 ft | 526 kts | 68° |
| 2026-04-25 07:04 | 21.98487 | 117.47876 | 35004 ft | 525 kts | 64° |
| 2026-04-25 07:05 | 22.01835 | 117.54826 | 35002 ft | 524 kts | 56° |
| 2026-04-25 07:05 | 22.05643 | 117.61497 | 35004 ft | 523 kts | 55° |
| 2026-04-25 07:06 | 22.09474 | 117.68160 | 35003 ft | 523 kts | 56° |
| 2026-04-25 07:06 | 22.13302 | 117.74890 | 35004 ft | 523 kts | 56° |
| 2026-04-25 07:07 | 22.17085 | 117.81576 | 35008 ft | 524 kts | 56° |
| 2026-04-25 07:07 | 22.20875 | 117.88286 | 35001 ft | 524 kts | 57° |
| 2026-04-25 07:08 | 22.24656 | 117.94983 | 35005 ft | 524 kts | 56° |
| 2026-04-25 07:08 | 22.28435 | 118.01676 | 35003 ft | 523 kts | 56° |
| 2026-04-25 07:09 | 22.32345 | 118.08364 | 35004 ft | 525 kts | 55° |
| 2026-04-25 07:09 | 22.36242 | 118.15021 | 35004 ft | 525 kts | 55° |
| 2026-04-25 07:10 | 22.40126 | 118.21690 | 35006 ft | 525 kts | 55° |
| 2026-04-25 07:10 | 22.43960 | 118.28412 | 35004 ft | 526 kts | 57° |
| 2026-04-25 07:11 | 22.47760 | 118.35154 | 35005 ft | 526 kts | 57° |
| 2026-04-25 07:11 | 22.51557 | 118.41877 | 35004 ft | 527 kts | 57° |
| 2026-04-25 07:12 | 22.55377 | 118.48640 | 35004 ft | 527 kts | 57° |
| 2026-04-25 07:12 | 22.61125 | 118.58755 | 35004 ft | 527 kts | 56° |
| 2026-04-25 07:13 | 22.64971 | 118.65496 | 35005 ft | 527 kts | 57° |
| 2026-04-25 07:13 | 22.68812 | 118.72246 | 35006 ft | 528 kts | 57° |
| 2026-04-25 07:14 | 22.72664 | 118.79028 | 35004 ft | 528 kts | 57° |
| 2026-04-25 07:14 | 22.76492 | 118.85777 | 35001 ft | 528 kts | 57° |
| 2026-04-25 07:15 | 22.80324 | 118.92540 | 35008 ft | 529 kts | 57° |
| 2026-04-25 07:15 | 22.84186 | 118.99371 | 35005 ft | 530 kts | 57° |
| 2026-04-25 07:16 | 22.88026 | 119.06165 | 34999 ft | 530 kts | 57° |
| 2026-04-25 07:16 | 22.91859 | 119.12967 | 34997 ft | 532 kts | 57° |
| 2026-04-25 07:17 | 22.95704 | 119.19787 | 34996 ft | 531 kts | 57° |
| 2026-04-25 07:17 | 22.99565 | 119.26649 | 35005 ft | 533 kts | 58° |
| 2026-04-25 07:18 | 23.03400 | 119.33482 | 35005 ft | 533 kts | 57° |
| 2026-04-25 07:18 | 23.07269 | 119.40377 | 35006 ft | 532 kts | 57° |
| 2026-04-25 07:19 | 23.11113 | 119.47236 | 34997 ft | 532 kts | 57° |
| 2026-04-25 07:19 | 23.14952 | 119.54096 | 35004 ft | 533 kts | 58° |
| 2026-04-25 07:20 | 23.18782 | 119.60952 | 35003 ft | 533 kts | 57° |
| 2026-04-25 07:20 | 23.22617 | 119.67815 | 34998 ft | 533 kts | 58° |
| 2026-04-25 07:21 | 23.26473 | 119.74722 | 34996 ft | 533 kts | 58° |
| 2026-04-25 07:21 | 23.30291 | 119.81574 | 34993 ft | 533 kts | 58° |
| 2026-04-25 07:22 | 23.34221 | 119.88460 | 34985 ft | 533 kts | 54° |
| 2026-04-25 07:22 | 23.38729 | 119.94771 | 34996 ft | 531 kts | 45° |
| 2026-04-25 07:23 | 23.43950 | 120.00454 | 34992 ft | 529 kts | 39° |
| 2026-04-25 07:23 | 23.49340 | 120.05910 | 34994 ft | 530 kts | 39° |
| 2026-04-25 07:24 | 23.54744 | 120.11428 | 34995 ft | 531 kts | 40° |
| 2026-04-25 07:24 | 23.60102 | 120.16946 | 35004 ft | 531 kts | 40° |
| 2026-04-25 07:25 | 23.65443 | 120.22470 | 35003 ft | 532 kts | 40° |
| 2026-04-25 07:25 | 23.70855 | 120.28070 | 35003 ft | 532 kts | 40° |
| 2026-04-25 07:26 | 23.76238 | 120.33648 | 35011 ft | 532 kts | 40° |
| 2026-04-25 07:26 | 23.81592 | 120.39200 | 35008 ft | 534 kts | 40° |
| 2026-04-25 07:27 | 23.86988 | 120.44809 | 35015 ft | 533 kts | 40° |
| 2026-04-25 07:27 | 23.92359 | 120.50402 | 35009 ft | 533 kts | 40° |
| 2026-04-25 07:28 | 23.97686 | 120.56010 | 35020 ft | 534 kts | 40° |
| 2026-04-25 07:28 | 24.03040 | 120.61664 | 35030 ft | 535 kts | 40° |
| 2026-04-25 07:29 | 24.08361 | 120.67288 | 35034 ft | 535 kts | 41° |
| 2026-04-25 07:29 | 24.13716 | 120.72957 | 35066 ft | 536 kts | 41° |
| 2026-04-25 07:30 | 24.19081 | 120.78638 | 35054 ft | 535 kts | 41° |
| 2026-04-25 07:30 | 24.24415 | 120.84298 | 35078 ft | 535 kts | 41° |
| 2026-04-25 07:31 | 24.29849 | 120.90067 | 35102 ft | 537 kts | 41° |
| 2026-04-25 07:31 | 24.35269 | 120.95836 | 35141 ft | 535 kts | 41° |
| 2026-04-25 07:32 | 24.40659 | 121.01646 | 35166 ft | 535 kts | 44° |
| 2026-04-25 07:32 | 24.45599 | 121.07972 | 35187 ft | 537 kts | 50° |
| 2026-04-25 07:33 | 24.50211 | 121.14382 | 35188 ft | 537 kts | 50° |
| 2026-04-25 07:33 | 24.54843 | 121.20830 | 35194 ft | 537 kts | 50° |
| 2026-04-25 07:34 | 24.59459 | 121.27228 | 35191 ft | 536 kts | 50° |
| 2026-04-25 07:34 | 24.64145 | 121.33704 | 35141 ft | 536 kts | 50° |
| 2026-04-25 07:35 | 24.68823 | 121.40185 | 35106 ft | 537 kts | 50° |
| 2026-04-25 07:35 | 24.73501 | 121.46674 | 35077 ft | 536 kts | 50° |
| 2026-04-25 07:36 | 24.78143 | 121.53121 | 35060 ft | 538 kts | 50° |
| 2026-04-25 07:36 | 24.82787 | 121.59588 | 35047 ft | 538 kts | 50° |
| 2026-04-25 07:37 | 24.87414 | 121.66035 | 35041 ft | 538 kts | 51° |
| 2026-04-25 07:37 | 24.92191 | 121.72437 | 35040 ft | 539 kts | 48° |
| 2026-04-25 07:38 | 24.97104 | 121.78666 | 35041 ft | 538 kts | 47° |
| 2026-04-25 07:38 | 25.02026 | 121.84906 | 35034 ft | 539 kts | 48° |
| 2026-04-25 07:39 | 25.06901 | 121.91141 | 35030 ft | 538 kts | 50° |
| 2026-04-25 07:39 | 25.10762 | 121.98219 | 35028 ft | 537 kts | 71° |
| 2026-04-25 07:40 | 25.12430 | 122.06168 | 35018 ft | 525 kts | 92° |
| 2026-04-25 07:40 | 25.12082 | 122.14037 | 35024 ft | 515 kts | 103° |
| 2026-04-25 07:41 | 25.11225 | 122.21901 | 35024 ft | 516 kts | 103° |
| 2026-04-25 07:41 | 25.10518 | 122.29807 | 35023 ft | 516 kts | 103° |
| 2026-04-25 07:42 | 25.09778 | 122.37677 | 35020 ft | 516 kts | 103° |
| 2026-04-25 07:42 | 25.09018 | 122.45487 | 35020 ft | 517 kts | 103° |
| 2026-04-25 07:43 | 25.08252 | 122.53380 | 35009 ft | 517 kts | 103° |
| 2026-04-25 07:43 | 25.07491 | 122.61217 | 35017 ft | 517 kts | 103° |
| 2026-04-25 07:44 | 25.06720 | 122.69099 | 35010 ft | 517 kts | 103° |
| 2026-04-25 07:44 | 25.05955 | 122.76908 | 35002 ft | 515 kts | 104° |
| 2026-04-25 07:45 | 25.05174 | 122.84794 | 35011 ft | 517 kts | 104° |
| 2026-04-25 07:45 | 25.04398 | 122.92615 | 35005 ft | 517 kts | 104° |
| 2026-04-25 07:46 | 25.03612 | 123.00484 | 35004 ft | 517 kts | 103° |
| 2026-04-25 07:46 | 25.02825 | 123.08360 | 34996 ft | 517 kts | 104° |
| 2026-04-25 07:47 | 25.02034 | 123.16228 | 35003 ft | 517 kts | 104° |
| 2026-04-25 07:47 | 25.01240 | 123.24060 | 35008 ft | 516 kts | 103° |
| 2026-04-25 07:48 | 25.00434 | 123.31947 | 35004 ft | 517 kts | 103° |
| 2026-04-25 07:48 | 24.99631 | 123.39784 | 34995 ft | 516 kts | 103° |
| 2026-04-25 07:49 | 24.98829 | 123.47589 | 35006 ft | 516 kts | 103° |
| 2026-04-25 07:49 | 24.98016 | 123.55452 | 35002 ft | 515 kts | 104° |
| 2026-04-25 07:50 | 24.97197 | 123.63317 | 35013 ft | 516 kts | 104° |
| 2026-04-25 07:50 | 24.96383 | 123.71127 | 35014 ft | 514 kts | 104° |
| 2026-04-25 07:51 | 24.95559 | 123.78944 | 35012 ft | 515 kts | 104° |
| 2026-04-25 07:51 | 24.94735 | 123.86757 | 35018 ft | 515 kts | 104° |
| 2026-04-25 07:52 | 24.93901 | 123.94613 | 35015 ft | 515 kts | 104° |
| 2026-04-25 07:52 | 24.93057 | 124.02430 | 35014 ft | 514 kts | 104° |
| 2026-04-25 07:53 | 24.92148 | 124.10213 | 35007 ft | 514 kts | 104° |
| 2026-04-25 07:53 | 24.91222 | 124.18034 | 35006 ft | 515 kts | 105° |
| 2026-04-25 07:54 | 24.90303 | 124.25813 | 35010 ft | 515 kts | 104° |
| 2026-04-25 07:54 | 24.89372 | 124.33662 | 35002 ft | 518 kts | 104° |
| 2026-04-25 07:55 | 24.88450 | 124.41470 | 35004 ft | 515 kts | 104° |
| 2026-04-25 07:55 | 24.87521 | 124.49268 | 35003 ft | 516 kts | 104° |
| 2026-04-25 07:56 | 24.86580 | 124.57117 | 35001 ft | 516 kts | 104° |
| 2026-04-25 07:56 | 24.85641 | 124.64919 | 35003 ft | 517 kts | 104° |
| 2026-04-25 07:57 | 24.84698 | 124.72742 | 34990 ft | 515 kts | 104° |
| 2026-04-25 07:57 | 24.83754 | 124.80533 | 35003 ft | 515 kts | 104° |
| 2026-04-25 07:58 | 24.82801 | 124.88333 | 35000 ft | 514 kts | 104° |
| 2026-04-25 07:58 | 24.81846 | 124.96117 | 34997 ft | 515 kts | 104° |
| 2026-04-25 07:59 | 24.80889 | 125.03907 | 34996 ft | 515 kts | 104° |
| 2026-04-25 07:59 | 24.79927 | 125.11710 | 35000 ft | 515 kts | 104° |
| 2026-04-25 08:00 | 24.78982 | 125.19528 | 35000 ft | 517 kts | 102° |
| 2026-04-25 08:00 | 24.79151 | 125.27489 | 35002 ft | 529 kts | 85° |
| 2026-04-25 08:01 | 24.81210 | 125.35273 | 35004 ft | 537 kts | 68° |
| 2026-04-25 08:01 | 24.84927 | 125.42451 | 35011 ft | 539 kts | 57° |
| 2026-04-25 08:02 | 24.88980 | 125.49337 | 34984 ft | 536 kts | 57° |
| 2026-04-25 08:02 | 24.90981 | 125.52784 | 34690 ft | 532 kts | 58° |
| 2026-04-25 08:02 | 24.92950 | 125.56211 | 34036 ft | 531 kts | 58° |
| 2026-04-25 08:03 | 24.94910 | 125.59659 | 33367 ft | 530 kts | 58° |
| 2026-04-25 08:03 | 24.96839 | 125.63065 | 32725 ft | 529 kts | 58° |
| 2026-04-25 08:03 | 24.98772 | 125.66490 | 32105 ft | 529 kts | 59° |
| 2026-04-25 08:03 | 25.00722 | 125.69953 | 31438 ft | 528 kts | 59° |
| 2026-04-25 08:04 | 25.02644 | 125.73370 | 30969 ft | 523 kts | 59° |
| 2026-04-25 08:04 | 25.04525 | 125.76712 | 30607 ft | 516 kts | 59° |
| 2026-04-25 08:04 | 25.06412 | 125.80068 | 30147 ft | 511 kts | 59° |
| 2026-04-25 08:04 | 25.08259 | 125.83359 | 29675 ft | 507 kts | 59° |
| 2026-04-25 08:05 | 25.10121 | 125.86676 | 29188 ft | 503 kts | 59° |
| 2026-04-25 08:05 | 25.11937 | 125.89912 | 28730 ft | 498 kts | 58° |
| 2026-04-25 08:05 | 25.13760 | 125.93162 | 28306 ft | 492 kts | 58° |
| 2026-04-25 08:05 | 25.15532 | 125.96320 | 27881 ft | 487 kts | 58° |
| 2026-04-25 08:06 | 25.17306 | 125.99487 | 27429 ft | 482 kts | 58° |
| 2026-04-25 08:06 | 25.19046 | 126.02596 | 26963 ft | 478 kts | 58° |
| 2026-04-25 08:06 | 25.20792 | 126.05720 | 26525 ft | 473 kts | 58° |
| 2026-04-25 08:06 | 25.22495 | 126.08765 | 26081 ft | 469 kts | 58° |
| 2026-04-25 08:07 | 25.24206 | 126.11829 | 25627 ft | 465 kts | 58° |
| 2026-04-25 08:07 | 25.25900 | 126.14863 | 25184 ft | 461 kts | 57° |
| 2026-04-25 08:07 | 25.27569 | 126.17851 | 24768 ft | 456 kts | 57° |
| 2026-04-25 08:07 | 25.29206 | 126.20786 | 24321 ft | 452 kts | 57° |
| 2026-04-25 08:08 | 25.30847 | 126.23732 | 23871 ft | 449 kts | 57° |
| 2026-04-25 08:08 | 25.32465 | 126.26643 | 23450 ft | 444 kts | 57° |
| 2026-04-25 08:08 | 25.34085 | 126.29555 | 23033 ft | 440 kts | 57° |
| 2026-04-25 08:08 | 25.35685 | 126.32432 | 22605 ft | 437 kts | 57° |
| 2026-04-25 08:09 | 25.37255 | 126.35252 | 22185 ft | 433 kts | 57° |
| 2026-04-25 08:09 | 25.38822 | 126.38071 | 21749 ft | 431 kts | 57° |
| 2026-04-25 08:09 | 25.40388 | 126.40891 | 21323 ft | 428 kts | 57° |
| 2026-04-25 08:09 | 25.41940 | 126.43689 | 20938 ft | 423 kts | 57° |
| 2026-04-25 08:10 | 25.43463 | 126.46435 | 20522 ft | 420 kts | 57° |
| 2026-04-25 08:10 | 25.44979 | 126.49171 | 20118 ft | 417 kts | 57° |
| 2026-04-25 08:10 | 25.46488 | 126.51897 | 19698 ft | 414 kts | 57° |
| 2026-04-25 08:10 | 25.47969 | 126.54572 | 19278 ft | 411 kts | 57° |
| 2026-04-25 08:11 | 25.49454 | 126.57260 | 18855 ft | 408 kts | 57° |
| 2026-04-25 08:11 | 25.50927 | 126.59937 | 18453 ft | 405 kts | 57° |
| 2026-04-25 08:11 | 25.52382 | 126.62584 | 18047 ft | 402 kts | 58° |
| 2026-04-25 08:11 | 25.53819 | 126.65201 | 17648 ft | 398 kts | 58° |
| 2026-04-25 08:12 | 25.55258 | 126.67824 | 17218 ft | 396 kts | 58° |
| 2026-04-25 08:12 | 25.56670 | 126.70400 | 16785 ft | 394 kts | 58° |
| 2026-04-25 08:12 | 25.58104 | 126.73017 | 16359 ft | 391 kts | 58° |
| 2026-04-25 08:12 | 25.59491 | 126.75547 | 15959 ft | 387 kts | 58° |
| 2026-04-25 08:13 | 25.60883 | 126.78091 | 15531 ft | 385 kts | 58° |
| 2026-04-25 08:13 | 25.62274 | 126.80636 | 15117 ft | 382 kts | 58° |
| 2026-04-25 08:13 | 25.63631 | 126.83117 | 14710 ft | 379 kts | 57° |
| 2026-04-25 08:14 | 25.66350 | 126.88091 | 13970 ft | 375 kts | 57° |
| 2026-04-25 08:14 | 25.67698 | 126.90559 | 13630 ft | 373 kts | 58° |
| 2026-04-25 08:14 | 25.69037 | 126.93012 | 13293 ft | 371 kts | 57° |
| 2026-04-25 08:14 | 25.70354 | 126.95426 | 12961 ft | 367 kts | 58° |
| 2026-04-25 08:15 | 25.71673 | 126.97841 | 12625 ft | 365 kts | 57° |
| 2026-04-25 08:15 | 25.72983 | 127.00242 | 12280 ft | 363 kts | 57° |
| 2026-04-25 08:15 | 25.74287 | 127.02633 | 11944 ft | 361 kts | 58° |
| 2026-04-25 08:15 | 25.75572 | 127.04993 | 11611 ft | 359 kts | 58° |
| 2026-04-25 08:16 | 25.76868 | 127.07374 | 11270 ft | 356 kts | 58° |
| 2026-04-25 08:16 | 25.78136 | 127.09702 | 10931 ft | 351 kts | 58° |
| 2026-04-25 08:16 | 25.79381 | 127.11995 | 10595 ft | 347 kts | 58° |
| 2026-04-25 08:16 | 25.80611 | 127.14260 | 10254 ft | 342 kts | 58° |
| 2026-04-25 08:17 | 25.81842 | 127.16524 | 9910 ft | 338 kts | 58° |
| 2026-04-25 08:17 | 25.83045 | 127.18742 | 9572 ft | 334 kts | 58° |
| 2026-04-25 08:17 | 25.84223 | 127.20919 | 9238 ft | 330 kts | 58° |
| 2026-04-25 08:17 | 25.85403 | 127.23098 | 8898 ft | 326 kts | 58° |
| 2026-04-25 08:18 | 25.86556 | 127.25230 | 8556 ft | 322 kts | 58° |
| 2026-04-25 08:18 | 25.87713 | 127.27361 | 8215 ft | 318 kts | 58° |
| 2026-04-25 08:18 | 25.88844 | 127.29455 | 7871 ft | 315 kts | 58° |
| 2026-04-25 08:18 | 25.89774 | 127.31619 | 7526 ft | 313 kts | 69° |
| 2026-04-25 08:19 | 25.90407 | 127.33926 | 7183 ft | 310 kts | 74° |
| 2026-04-25 08:19 | 25.90938 | 127.36235 | 6842 ft | 307 kts | 75° |
| 2026-04-25 08:19 | 25.91447 | 127.38502 | 6499 ft | 303 kts | 75° |
| 2026-04-25 08:19 | 25.91961 | 127.40766 | 6149 ft | 300 kts | 74° |
| 2026-04-25 08:20 | 25.92471 | 127.42988 | 5810 ft | 297 kts | 73° |
| 2026-04-25 08:20 | 25.92983 | 127.45199 | 5468 ft | 295 kts | 73° |
| 2026-04-25 08:20 | 25.93493 | 127.47386 | 5122 ft | 292 kts | 74° |
| 2026-04-25 08:20 | 25.93997 | 127.49545 | 4781 ft | 289 kts | 73° |
| 2026-04-25 08:21 | 25.94501 | 127.51705 | 4435 ft | 287 kts | 73° |
| 2026-04-25 08:21 | 25.94994 | 127.53822 | 4088 ft | 284 kts | 73° |
| 2026-04-25 08:21 | 25.95487 | 127.55942 | 3742 ft | 281 kts | 73° |
| 2026-04-25 08:21 | 25.95980 | 127.58027 | 3398 ft | 279 kts | 71° |
| 2026-04-25 08:22 | 25.96889 | 127.59866 | 3033 ft | 271 kts | 42° |
| 2026-04-25 08:22 | 25.98397 | 127.61092 | 2703 ft | 265 kts | 29° |
| 2026-04-25 08:22 | 25.99983 | 127.62111 | 2366 ft | 263 kts | 28° |
| 2026-04-25 08:22 | 26.01546 | 127.63145 | 2053 ft | 260 kts | 30° |
| 2026-04-25 08:23 | 26.03057 | 127.64201 | 1985 ft | 246 kts | 31° |
| 2026-04-25 08:23 | 26.04510 | 127.65054 | 1955 ft | 229 kts | 13° |
| 2026-04-25 08:23 | 26.06039 | 127.65236 | 1963 ft | 214 kts | 358° |
| 2026-04-25 08:23 | 26.07465 | 127.65154 | 2007 ft | 197 kts | 355° |
| 2026-04-25 08:24 | 26.08799 | 127.65051 | 1830 ft | 183 kts | 356° |
| 2026-04-25 08:24 | 26.10011 | 127.64981 | 1596 ft | 167 kts | 357° |
| 2026-04-25 08:24 | 26.11120 | 127.64932 | 1369 ft | 151 kts | 357° |
| 2026-04-25 08:24 | 26.12133 | 127.64888 | 1168 ft | 141 kts | 357° |
| 2026-04-25 08:25 | 26.13114 | 127.64844 | 1005 ft | 141 kts | 357° |
| 2026-04-25 08:25 | 26.14095 | 127.64816 | 823 ft | 140 kts | 360° |
| 2026-04-25 08:25 | 26.15074 | 127.64845 | 625 ft | 140 kts | 360° |
| 2026-04-25 08:25 | 26.16043 | 127.64774 | 462 ft | 139 kts | 353° |
| 2026-04-25 08:26 | 26.17019 | 127.64683 | 310 ft | 140 kts | 0° |
| 2026-04-25 08:26 | 26.17991 | 127.64654 | 112 ft | 138 kts | 360° |
| 2026-04-25 08:26 | 26.18953 | 127.64612 | 31 ft | 132 kts | 360° |
| 2026-04-25 08:26 | 26.19736 | 127.64578 | 29 ft | 86 kts | 357° |
| 2026-04-25 08:27 | 26.20103 | 127.64562 | 26 ft | 27 kts | 0° |
| 2026-04-25 08:27 | 26.20284 | 127.64613 | 23 ft | 26 kts | 27° |
| 2026-04-25 08:27 | 26.20390 | 127.64676 | 21 ft | 16 kts | 28° |
| 2026-04-25 08:27 | 26.20499 | 127.64737 | 19 ft | 16 kts | 26° |
| 2026-04-25 08:28 | 26.20590 | 127.64748 | 17 ft | 13 kts | 4° |
| 2026-04-25 08:28 | 26.20631 | 127.64826 | 19 ft | 12 kts | 86° |
| 2026-04-25 08:28 | 26.20643 | 127.64882 | 23 ft | 4 kts | 34° |
| 2026-04-25 08:28 | 26.20658 | 127.64891 | 24 ft | 0 kts | 26° |
| 2026-04-25 08:29 | 26.20675 | 127.64899 | 25 ft | 5 kts | 26° |
| 2026-04-25 08:29 | 26.20698 | 127.64913 | 26 ft | 2 kts | 28° |
| 2026-04-25 08:29 | 26.20709 | 127.64919 | 27 ft | 1 kts | 27° |
| 2026-04-25 08:29 | 26.20710 | 127.64919 | 27 ft | 0 kts | 27° |